createdAt,value
2019-06-10T15:45:49.930Z,56.90
2019-06-10T15:46:52.278Z,56.70
2019-06-10T15:47:49.852Z,56.10
2019-06-10T15:48:49.872Z,57.10
2019-06-10T15:49:52.424Z,57.23
2019-06-10T15:50:49.813Z,58.03
2019-06-10T15:51:52.556Z,56.96
2019-06-10T15:52:52.258Z,57.35
2019-06-10T15:53:49.800Z,56.76
2019-06-10T15:54:49.803Z,56.85
2019-06-10T15:56:12.178Z,57.43
2019-06-10T15:56:56.233Z,57.15
2019-06-10T15:57:50.750Z,57.26
2019-06-10T15:58:52.045Z,57.26
2019-06-10T15:59:52.027Z,57.73
2019-06-10T16:00:49.705Z,57.63
2019-06-10T16:01:49.774Z,57.82
2019-06-10T16:02:50.408Z,57.23
2019-06-10T16:03:49.698Z,56.60
2019-06-10T16:04:49.710Z,57.00
2019-06-10T16:05:52.480Z,57.50
2019-06-10T16:06:49.626Z,57.00
2019-06-10T16:07:49.651Z,56.51
2019-06-10T16:08:49.625Z,57.20
2019-06-10T16:09:49.626Z,56.70
2019-06-10T16:10:52.255Z,56.90
2019-06-10T16:11:49.605Z,57.93
2019-06-10T16:12:49.596Z,56.81
2019-06-10T16:13:49.622Z,56.83
2019-06-10T16:14:52.645Z,57.15
2019-06-10T16:15:53.317Z,57.26
2019-06-10T16:16:49.552Z,58.06
2019-06-10T16:17:49.535Z,56.93
2019-06-10T16:18:49.484Z,57.15
2019-06-10T16:19:49.502Z,57.35
2019-06-10T16:20:49.492Z,57.65
2019-06-10T16:21:49.536Z,58.25
2019-06-10T16:22:52.165Z,58.36
2019-06-10T16:23:49.488Z,58.38
2019-06-10T16:24:49.519Z,58.18
2019-06-10T16:25:49.511Z,57.88
2019-06-10T16:26:49.444Z,59.38
2019-06-10T16:27:51.739Z,58.01
2019-06-10T16:28:52.214Z,58.14
2019-06-10T16:29:49.428Z,58.44
2019-06-10T16:30:49.947Z,58.73
2019-06-10T16:31:49.495Z,58.84
2019-06-10T16:32:52.837Z,58.94
2019-06-10T16:33:49.731Z,58.84
2019-06-10T16:34:49.342Z,59.14
2019-06-10T16:35:49.339Z,58.73
2019-06-10T16:36:49.354Z,58.51
2019-06-10T16:37:49.370Z,58.44
2019-06-10T16:38:49.327Z,58.61
2019-06-10T16:39:49.313Z,58.81
2019-06-10T16:40:49.295Z,58.81
2019-06-10T16:41:49.271Z,58.11
2019-06-10T16:42:49.220Z,58.21
2019-06-10T16:43:49.383Z,58.71
2019-06-10T16:44:49.231Z,58.61
2019-06-10T16:45:49.247Z,58.21
2019-06-10T16:46:49.270Z,58.41
2019-06-10T16:47:49.235Z,58.18
2019-06-10T16:48:49.207Z,59.61
2019-06-10T16:49:49.184Z,58.71
2019-06-10T16:50:49.194Z,58.98
2019-06-10T16:51:52.143Z,59.31
2019-06-10T16:52:49.154Z,59.21
2019-06-10T16:53:49.108Z,59.11
2019-06-10T16:54:49.165Z,59.11
2019-06-10T16:55:49.120Z,59.14
2019-06-10T16:56:52.298Z,58.84
2019-06-10T16:57:58.822Z,59.81
2019-06-10T16:58:52.327Z,59.74
2019-06-10T16:59:49.096Z,59.83
2019-06-10T17:00:49.116Z,60.24
2019-06-10T17:01:49.045Z,60.24
2019-06-10T17:02:52.919Z,60.93
2019-06-10T17:03:49.086Z,61.33
2019-06-10T17:04:48.988Z,61.96
2019-06-10T17:05:49.054Z,62.99
2019-06-10T17:06:49.055Z,62.79
2019-06-10T17:07:49.018Z,63.29
2019-06-10T17:08:49.039Z,64.00
2019-06-10T17:09:49.000Z,64.62
2019-06-10T17:10:48.962Z,65.22
2019-06-10T17:11:49.011Z,64.22
2019-06-10T17:12:48.945Z,64.22
2019-06-10T17:13:48.951Z,64.52
2019-06-10T17:14:48.927Z,63.95
2019-06-10T17:15:48.911Z,63.56
2019-06-10T17:16:52.781Z,63.22
2019-06-10T17:17:49.003Z,63.75
2019-06-10T17:18:48.861Z,64.25
2019-06-10T17:19:48.855Z,64.06
2019-06-10T17:20:48.852Z,64.25
2019-06-10T17:21:48.896Z,64.36
2019-06-10T17:22:48.860Z,64.45
2019-06-10T17:23:48.823Z,63.95
2019-06-10T17:24:48.800Z,65.05
2019-06-10T17:25:48.831Z,64.69
2019-06-10T17:26:48.914Z,65.09
2019-06-10T17:27:48.753Z,65.78
2019-06-10T17:28:48.784Z,65.48
2019-06-10T17:29:48.785Z,65.78
2019-06-10T17:30:48.765Z,65.99
2019-06-10T17:31:48.804Z,66.28
2019-06-10T17:32:48.715Z,66.52
2019-06-10T17:33:48.739Z,66.99
2019-06-10T17:34:48.757Z,66.89
2019-06-10T17:35:48.697Z,67.02
2019-06-10T17:36:50.435Z,67.22
2019-06-10T17:37:48.659Z,67.32
2019-06-10T17:38:48.622Z,67.92
2019-06-10T17:39:49.544Z,68.02
2019-06-10T17:40:48.690Z,68.12
2019-06-10T17:41:48.700Z,68.92
2019-06-10T17:42:48.655Z,68.65
2019-06-10T17:43:49.483Z,68.35
2019-06-10T17:44:49.600Z,68.55
2019-06-10T17:45:48.576Z,68.73
2019-06-10T17:46:48.640Z,69.66
2019-06-10T17:47:48.748Z,69.96
2019-06-10T17:48:48.535Z,69.66
2019-06-10T17:49:48.503Z,69.35
2019-06-10T17:50:48.532Z,69.86
2019-06-10T17:51:48.517Z,70.36
2019-06-10T17:52:48.503Z,70.56
2019-06-10T17:53:48.591Z,70.46
2019-06-10T17:54:49.530Z,70.96
2019-06-10T17:55:48.481Z,70.66
2019-06-10T17:56:48.495Z,71.06
2019-06-10T17:57:48.460Z,70.56
2019-06-10T17:58:57.007Z,70.96
2019-06-10T17:59:52.373Z,71.06
2019-06-10T18:00:48.442Z,71.70
2019-06-10T18:01:48.407Z,71.09
2019-06-10T18:02:48.480Z,70.79
2019-06-10T18:03:48.379Z,71.59
2019-06-10T18:04:48.372Z,72.40
2019-06-10T18:05:48.414Z,71.70
2019-06-10T18:06:48.356Z,72.00
2019-06-10T18:07:48.357Z,72.09
2019-06-10T18:08:48.292Z,72.09
2019-06-10T18:09:48.339Z,72.03
2019-06-10T18:10:48.269Z,72.90
2019-06-10T18:11:48.262Z,73.74
2019-06-10T18:12:49.078Z,73.74
2019-06-10T18:13:48.272Z,73.13
2019-06-10T18:14:48.236Z,73.74
2019-06-10T18:15:48.258Z,73.64
2019-06-10T18:16:48.209Z,73.74
2019-06-10T18:17:48.216Z,73.84
2019-06-10T18:18:48.293Z,73.44
2019-06-10T18:19:48.187Z,73.24
2019-06-10T18:20:48.201Z,73.44
2019-06-10T18:21:48.156Z,73.24
2019-06-10T18:22:48.151Z,73.24
2019-06-10T18:23:48.199Z,73.74
2019-06-10T18:24:48.179Z,73.77
2019-06-10T18:25:48.507Z,74.24
2019-06-10T18:26:48.095Z,73.64
2019-06-10T18:27:48.087Z,74.07
2019-06-10T18:29:00.269Z,73.87
2019-06-10T18:29:49.110Z,74.27
2019-06-10T18:30:48.076Z,73.67
2019-06-10T18:31:48.125Z,74.18
2019-06-10T18:32:48.035Z,74.57
2019-06-10T18:33:48.059Z,74.27
2019-06-10T18:34:48.017Z,74.27
2019-06-10T18:35:48.039Z,75.18
2019-06-10T18:36:47.999Z,75.18
2019-06-10T18:37:47.996Z,75.18
2019-06-10T18:38:47.969Z,75.27
2019-06-10T18:39:48.000Z,75.27
2019-06-10T18:40:47.953Z,75.11
2019-06-10T18:41:47.945Z,75.01
2019-06-10T18:42:47.923Z,75.01
2019-06-10T18:43:47.958Z,75.51
2019-06-10T18:44:48.092Z,75.51
2019-06-10T18:45:47.943Z,75.62
2019-06-10T18:46:47.917Z,75.62
2019-06-10T18:47:47.871Z,75.42
2019-06-10T18:48:47.941Z,75.82
2019-06-10T18:49:47.873Z,75.21
2019-06-10T18:50:47.846Z,75.55
2019-06-10T18:51:47.824Z,75.82
2019-06-10T18:52:48.261Z,75.25
2019-06-10T18:53:47.810Z,75.65
2019-06-10T18:54:47.818Z,75.55
2019-06-10T18:55:48.760Z,75.95
2019-06-10T18:56:47.802Z,75.45
2019-06-10T18:57:47.758Z,75.85
2019-06-10T18:58:47.837Z,75.85
2019-06-10T18:59:47.746Z,75.95
2019-06-10T19:00:59.088Z,76.15
2019-06-10T19:01:48.713Z,76.25
2019-06-10T19:02:47.720Z,76.86
2019-06-10T19:03:47.694Z,77.06
2019-06-10T19:04:54.565Z,77.20
2019-06-10T19:05:47.785Z,76.96
2019-06-10T19:06:47.676Z,77.26
2019-06-10T19:07:48.431Z,77.16
2019-06-10T19:08:47.774Z,76.49
2019-06-10T19:09:48.166Z,76.15
2019-06-10T19:10:47.627Z,75.59
2019-06-10T19:11:47.648Z,76.29
2019-06-10T19:12:47.635Z,76.59
2019-06-10T19:13:47.584Z,75.59
2019-06-10T19:14:47.617Z,75.09
2019-06-10T19:15:47.568Z,75.18
2019-06-10T19:16:47.556Z,75.38
2019-06-10T19:17:47.559Z,75.82
2019-06-10T19:18:47.532Z,75.68
2019-06-10T19:19:47.597Z,75.49
2019-06-10T19:20:47.527Z,75.49
2019-06-10T19:22:01.806Z,76.43
2019-06-10T19:22:48.578Z,74.32
2019-06-10T19:23:47.487Z,72.81
2019-06-10T19:24:47.527Z,72.61
2019-06-10T19:25:47.492Z,72.00
2019-06-10T19:26:47.454Z,72.00
2019-06-10T19:27:47.460Z,72.30
2019-06-10T19:28:47.476Z,72.17
2019-06-10T19:29:51.211Z,72.30
2019-06-10T19:30:48.481Z,72.71
2019-06-10T19:31:47.531Z,73.41
2019-06-10T19:32:47.402Z,73.11
2019-06-10T19:33:47.414Z,73.51
2019-06-10T19:34:48.470Z,74.35
2019-06-10T19:35:47.397Z,75.96
2019-06-10T19:36:47.365Z,73.55
2019-06-10T19:37:49.010Z,74.15
2019-06-10T19:38:48.422Z,75.35
2019-06-10T19:39:53.201Z,73.04
2019-06-10T19:40:48.349Z,73.65
2019-06-10T19:41:47.771Z,74.49
2019-06-10T19:42:47.326Z,74.58
2019-06-10T19:43:47.326Z,74.89
2019-06-10T19:44:47.315Z,75.39
2019-06-10T19:45:47.285Z,75.79
2019-06-10T19:46:47.281Z,75.39
2019-06-10T19:47:47.299Z,75.29
2019-06-10T19:48:56.563Z,75.99
2019-06-10T19:49:48.340Z,75.90
2019-06-10T19:50:50.439Z,76.74
2019-06-10T19:51:48.219Z,76.94
2019-06-10T19:52:47.201Z,76.94
2019-06-10T19:53:47.229Z,76.14
2019-06-10T19:54:47.607Z,76.03
2019-06-10T19:55:47.177Z,76.03
2019-06-10T19:56:47.220Z,76.54
2019-06-10T19:57:47.111Z,77.24
2019-06-10T19:58:47.201Z,77.75
2019-06-10T20:00:03.529Z,76.54
2019-06-10T20:00:51.147Z,76.34
2019-06-10T20:01:48.915Z,75.99
2019-06-10T20:02:47.110Z,76.03
2019-06-10T20:03:47.190Z,75.63
2019-06-10T20:04:47.154Z,75.73
2019-06-10T20:05:47.416Z,75.39
2019-06-10T20:06:50.380Z,75.93
2019-06-10T20:07:50.382Z,75.99
2019-06-10T20:08:47.998Z,78.96
2019-06-10T20:09:47.005Z,78.05
2019-06-10T20:10:47.115Z,79.16
2019-06-10T20:11:47.509Z,80.06
2019-06-10T20:12:46.995Z,79.09
2019-06-10T20:13:46.998Z,80.70
2019-06-10T20:14:47.911Z,79.13
2019-06-10T20:15:48.389Z,81.24
2019-06-10T20:16:48.118Z,81.28
2019-06-10T20:17:47.916Z,80.78
2019-06-10T20:18:48.239Z,82.39
2019-06-10T20:19:48.166Z,83.91
2019-06-10T20:20:47.632Z,83.84
2019-06-10T20:21:47.042Z,85.05
2019-06-10T20:22:48.117Z,84.35
2019-06-10T20:23:47.879Z,84.65
2019-06-10T20:24:46.976Z,85.05
2019-06-10T20:25:47.018Z,85.60
2019-06-10T20:26:48.099Z,85.50
2019-06-10T20:27:47.944Z,85.60
2019-06-10T20:28:52.215Z,84.89
2019-06-10T20:30:03.731Z,85.90
2019-06-10T20:30:49.150Z,86.61
2019-06-10T20:31:47.552Z,86.85
2019-06-10T20:32:51.634Z,86.51
2019-06-10T20:33:48.504Z,86.51
2019-06-10T20:34:46.754Z,86.30
2019-06-10T20:35:46.799Z,87.05
2019-06-10T20:36:46.998Z,86.75
2019-06-10T20:37:47.348Z,87.15
2019-06-10T20:38:48.676Z,87.56
2019-06-10T20:39:47.817Z,87.36
2019-06-10T20:40:48.766Z,87.10
2019-06-10T20:41:50.485Z,87.40
2019-06-10T20:42:48.717Z,87.10
2019-06-10T20:43:47.316Z,87.40
2019-06-10T20:44:47.837Z,87.19
2019-06-10T20:45:47.981Z,88.41
2019-06-10T20:46:48.091Z,88.31
2019-06-10T20:47:47.988Z,88.51
2019-06-10T20:48:49.340Z,88.51
2019-06-10T20:49:50.825Z,88.81
2019-06-10T20:50:49.812Z,88.31
2019-06-10T20:52:01.393Z,88.51
2019-06-10T20:52:49.010Z,88.51
2019-06-10T20:53:47.993Z,88.51
2019-06-10T20:54:48.268Z,88.10
2019-06-10T20:55:51.036Z,88.51
2019-06-10T20:56:50.218Z,88.51
2019-06-10T20:57:56.251Z,88.31
2019-06-10T20:58:48.364Z,88.01
2019-06-10T20:59:48.140Z,88.71
2019-06-10T21:00:51.868Z,88.51
2019-06-10T21:01:49.097Z,88.31
2019-06-10T21:02:48.631Z,88.41
2019-06-10T21:03:47.634Z,88.71
2019-06-10T21:04:47.097Z,88.71
2019-06-10T21:05:47.688Z,88.81
2019-06-10T21:06:47.399Z,88.61
2019-06-10T21:07:47.225Z,88.31
2019-06-10T21:08:49.270Z,87.70
2019-06-10T21:09:47.472Z,87.66
2019-06-10T21:10:48.401Z,87.56
2019-06-10T21:11:48.252Z,87.05
2019-06-10T21:12:48.275Z,87.15
2019-06-10T21:13:49.271Z,86.95
2019-06-10T21:14:47.226Z,86.85
2019-06-10T21:15:49.987Z,87.26
2019-06-10T21:16:46.485Z,86.95
2019-06-10T21:17:47.530Z,86.75
2019-06-10T21:18:48.756Z,86.85
2019-06-10T21:19:47.566Z,86.61
2019-06-10T21:20:49.556Z,86.75
2019-06-10T21:21:49.530Z,87.01
2019-06-10T21:22:47.527Z,87.01
2019-06-10T21:23:47.543Z,86.71
2019-06-10T21:24:46.608Z,86.71
2019-06-10T21:25:50.330Z,87.01
2019-06-10T21:26:47.086Z,86.61
2019-06-10T21:27:46.788Z,87.36
2019-06-10T21:28:48.952Z,87.05
2019-06-10T21:29:48.709Z,87.26
2019-06-10T21:30:49.611Z,87.46
2019-06-10T21:31:48.649Z,87.86
2019-06-10T21:32:47.440Z,87.96
2019-06-10T21:33:49.077Z,88.51
2019-06-10T21:34:47.418Z,88.21
2019-06-10T21:35:47.478Z,88.51
2019-06-10T21:36:47.326Z,88.92
2019-06-10T21:37:47.179Z,88.51
2019-06-10T21:38:48.159Z,88.61
2019-06-10T21:39:47.697Z,88.41
2019-06-10T21:40:48.135Z,87.30
2019-06-10T21:41:48.241Z,88.51
2019-06-10T21:42:47.937Z,88.41
2019-06-10T21:43:49.840Z,87.26
2019-06-10T21:44:47.972Z,87.60
2019-06-10T21:45:51.166Z,87.70
2019-06-10T21:46:47.601Z,87.19
2019-06-10T21:47:47.115Z,87.19
2019-06-10T21:48:47.380Z,87.19
2019-06-10T21:49:46.969Z,87.60
2019-06-10T21:50:48.101Z,88.10
2019-06-10T21:51:48.965Z,87.90
2019-06-10T21:52:47.246Z,87.74
2019-06-10T21:53:46.597Z,87.54
2019-06-10T21:54:46.770Z,87.34
2019-06-10T21:55:46.649Z,87.64
2019-06-10T21:56:47.084Z,88.96
2019-06-10T21:57:47.094Z,88.79
2019-06-10T21:58:46.871Z,89.00
2019-06-10T21:59:46.952Z,88.59
2019-06-10T22:00:55.542Z,88.90
2019-06-10T22:01:47.564Z,89.24
2019-06-10T22:02:47.095Z,89.54
2019-06-10T22:03:51.115Z,89.54
2019-06-10T22:04:47.854Z,89.75
2019-06-10T22:05:47.511Z,89.75
2019-06-10T22:06:45.793Z,89.54
2019-06-10T22:07:45.837Z,89.34
2019-06-10T22:08:45.790Z,89.14
2019-06-10T22:09:45.742Z,89.69
2019-06-10T22:10:45.949Z,89.18
2019-06-10T22:11:45.938Z,90.09
2019-06-10T22:12:45.981Z,89.89
2019-06-10T22:13:46.135Z,90.09
2019-06-10T22:14:46.138Z,90.14
2019-06-10T22:15:46.374Z,90.14
2019-06-10T22:16:46.263Z,90.03
2019-06-10T22:17:46.243Z,90.44
2019-06-10T22:18:46.566Z,89.73
2019-06-10T22:19:46.558Z,90.24
2019-06-10T22:20:46.723Z,90.24
2019-06-10T22:21:46.444Z,90.44
2019-06-10T22:22:46.544Z,91.25
2019-06-10T22:23:46.677Z,90.24
2019-06-10T22:24:46.637Z,90.75
2019-06-10T22:25:46.746Z,91.15
2019-06-10T22:26:46.813Z,90.95
2019-06-10T22:27:47.827Z,91.35
2019-06-10T22:28:45.516Z,91.05
2019-06-10T22:29:45.472Z,91.25
2019-06-10T22:30:45.495Z,90.95
2019-06-10T22:31:45.478Z,91.35
2019-06-10T22:32:45.529Z,91.25
2019-06-10T22:33:45.492Z,90.84
2019-06-10T22:34:45.477Z,91.05
2019-06-10T22:35:45.476Z,90.54
2019-06-10T22:36:45.524Z,91.35
2019-06-10T22:37:45.663Z,91.35
2019-06-10T22:38:45.743Z,91.55
2019-06-10T22:39:45.680Z,91.55
2019-06-10T22:40:45.396Z,90.84
2019-06-10T22:41:45.374Z,90.95
2019-06-10T22:42:45.426Z,91.80
2019-06-10T22:43:45.343Z,91.70
2019-06-10T22:44:45.339Z,91.15
2019-06-10T22:45:45.345Z,91.55
2019-06-10T22:46:45.326Z,91.09
2019-06-10T22:47:45.388Z,90.89
2019-06-10T22:48:45.303Z,91.30
2019-06-10T22:49:45.296Z,90.69
2019-06-10T22:50:45.316Z,90.89
2019-06-10T22:51:45.316Z,90.99
2019-06-10T22:52:45.319Z,91.44
2019-06-10T22:53:45.290Z,91.13
2019-06-10T22:54:45.232Z,91.64
2019-06-10T22:55:45.254Z,91.30
2019-06-10T22:56:45.198Z,91.19
2019-06-10T22:57:45.170Z,91.50
2019-06-10T22:58:45.246Z,91.30
2019-06-10T22:59:45.992Z,90.69
2019-06-10T23:00:46.037Z,90.48
2019-06-10T23:01:45.189Z,90.64
2019-06-10T23:02:45.159Z,90.44
2019-06-10T23:03:45.232Z,89.83
2019-06-10T23:04:45.136Z,90.03
2019-06-10T23:05:45.122Z,90.24
2019-06-10T23:06:45.096Z,89.94
2019-06-10T23:07:45.106Z,89.48
2019-06-10T23:08:45.211Z,89.59
2019-06-10T23:09:45.082Z,89.99
2019-06-10T23:10:47.012Z,90.09
2019-06-10T23:11:46.078Z,89.69
2019-06-10T23:12:45.067Z,89.69
2019-06-10T23:13:45.153Z,89.69
2019-06-10T23:14:44.997Z,89.59
2019-06-10T23:15:45.005Z,89.18
2019-06-10T23:16:45.517Z,89.08
2019-06-10T23:17:44.944Z,88.88
2019-06-10T23:18:45.041Z,88.57
2019-06-10T23:19:44.970Z,89.08
2019-06-10T23:20:44.938Z,88.57
2019-06-10T23:21:44.922Z,89.18
2019-06-10T23:22:44.922Z,88.98
2019-06-10T23:23:44.967Z,88.68
2019-06-10T23:24:44.913Z,89.12
2019-06-10T23:25:44.930Z,88.82
2019-06-10T23:26:44.936Z,89.73
2019-06-10T23:27:44.883Z,89.23
2019-06-10T23:28:44.935Z,89.73
2019-06-10T23:29:44.887Z,89.53
2019-06-10T23:30:44.843Z,89.83
2019-06-10T23:31:51.762Z,89.98
2019-06-10T23:32:45.846Z,89.57
2019-06-10T23:33:45.006Z,89.26
2019-06-10T23:34:44.820Z,90.14
2019-06-10T23:35:47.560Z,90.18
2019-06-10T23:36:44.817Z,89.94
2019-06-10T23:37:44.758Z,90.14
2019-06-10T23:38:44.838Z,89.32
2019-06-10T23:39:44.716Z,89.32
2019-06-10T23:40:44.792Z,89.12
2019-06-10T23:41:44.729Z,89.18
2019-06-10T23:42:44.725Z,89.28
2019-06-10T23:43:44.705Z,88.57
2019-06-10T23:44:44.741Z,88.57
2019-06-10T23:45:44.683Z,88.78
2019-06-10T23:46:44.703Z,87.97
2019-06-10T23:47:44.659Z,87.66
2019-06-10T23:48:44.689Z,87.56
2019-06-10T23:49:44.695Z,87.56
2019-06-10T23:50:44.625Z,88.17
2019-06-10T23:51:45.511Z,88.57
2019-06-10T23:52:45.540Z,87.66
2019-06-10T23:53:44.604Z,89.02
2019-06-10T23:54:44.614Z,88.42
2019-06-10T23:55:44.575Z,88.51
2019-06-10T23:56:44.566Z,88.92
2019-06-10T23:57:44.567Z,88.72
2019-06-10T23:58:44.535Z,89.02
2019-06-10T23:59:44.609Z,89.23
